Time;durP1;ratioP1;P1;durP2;ratioP2;P2;SDS_P1;SDS_P2;PMS_P1;PMS_P2;Temp;Humidity;BMP_temperature;BMP_pressure;BME280_temperature;BME280_humidity;BME280_pressure;Samples;Min_cycle;Max_cycle;Signal;HPM_P1;HPM_P2
2021/07/20 00:01:08;;;;;;;20.85;10.95;;;;;;;;;;5034898;28;20017;-71
2021/07/20 00:03:34;;;;;;;14.95;10.82;;;;;;;;;;5053040;28;20009;-71
2021/07/20 00:05:59;;;;;;;14.95;11.07;;;;;;;;;;5052956;28;20511;-71
2021/07/20 00:08:25;;;;;;;14.07;10.05;;;;;;;;;;5052934;28;20148;-71
2021/07/20 00:10:53;;;;;;;17.60;10.65;;;;;;;;;;5052731;28;20473;-70
2021/07/20 00:13:19;;;;;;;18.67;11.13;;;;;;;;;;5034983;28;20500;-71
2021/07/20 00:35:25;;;;;;;25.48;11.32;;;;;;;;;;5634310;22;20049;-71
2021/07/20 00:37:51;;;;;;;15.10;10.50;;;;;;;;;;5030048;28;20124;-71
2021/07/20 00:40:18;;;;;;;16.17;10.95;;;;;;;;;;5052661;28;20090;-71
2021/07/20 00:42:45;;;;;;;15.70;10.02;;;;;;;;;;5052472;28;20017;-71
2021/07/20 00:45:12;;;;;;;16.42;11.43;;;;;;;;;;5052432;28;20009;-71
2021/07/20 00:47:39;;;;;;;17.17;11.25;;;;;;;;;;5052552;28;20508;-71
2021/07/20 00:50:08;;;;;;;14.65;10.98;;;;;;;;;;5052357;28;20017;-71
2021/07/20 00:52:35;;;;;;;19.80;11.15;;;;;;;;;;5052396;28;20028;-71
2021/07/20 00:55:02;;;;;;;13.80;10.48;;;;;;;;;;5051963;28;20182;-71
2021/07/20 00:57:28;;;;;;;19.00;11.13;;;;;;;;;;5018055;28;20108;-71
2021/07/20 00:59:53;;;;;;;16.65;11.02;;;;;;;;;;5052157;28;20167;-71
2021/07/20 01:02:20;;;;;;;15.23;9.95;;;;;;;;;;5052421;28;20450;-71
2021/07/20 01:04:46;;;;;;;13.48;9.82;;;;;;;;;;5052130;28;20016;-71
2021/07/20 01:07:12;;;;;;;22.98;12.10;;;;;;;;;;5052119;28;20075;-71
2021/07/20 01:09:40;;;;;;;13.00;9.98;;;;;;;;;;5034288;28;20474;-71
2021/07/20 01:12:05;;;;;;;13.63;9.60;;;;;;;;;;5052193;28;20095;-71
2021/07/20 01:14:31;;;;;;;14.25;10.68;;;;;;;;;;5034275;28;20103;-71
2021/07/20 01:19:36;;;;;;;14.43;10.25;;;;;;;;;;5029969;28;19921;-70
2021/07/20 01:22:02;;;;;;;;;;;;;;;;;;5032525;28;20029;-71
2021/07/20 01:24:27;;;;;;;19.02;10.55;;;;;;;;;;5032403;28;20395;-71
2021/07/20 01:26:53;;;;;;;14.02;10.13;;;;;;;;;;5033286;28;20025;-71
2021/07/20 01:29:21;;;;;;;18.02;10.63;;;;;;;;;;5035754;28;20398;-71
2021/07/20 01:31:48;;;;;;;16.88;9.02;;;;;;;;;;5035939;28;20014;-71
2021/07/20 01:34:15;;;;;;;21.67;11.43;;;;;;;;;;5001704;28;20028;-71
2021/07/20 01:36:44;;;;;;;17.40;9.52;;;;;;;;;;5035776;28;20021;-71
2021/07/20 01:39:12;;;;;;;22.33;10.90;;;;;;;;;;5017942;28;20612;-70
2021/07/20 01:41:39;;;;;;;18.45;10.18;;;;;;;;;;5035520;28;20021;-71
2021/07/20 01:44:06;;;;;;;12.85;9.45;;;;;;;;;;5035554;28;20033;-71
2021/07/20 01:46:34;;;;;;;14.02;9.05;;;;;;;;;;5035632;28;20013;-71
2021/07/20 01:49:02;;;;;;;13.02;9.23;;;;;;;;;;5017406;28;20044;-71
2021/07/20 01:51:28;;;;;;;18.23;9.80;;;;;;;;;;5001551;28;20024;-71
2021/07/20 01:53:56;;;;;;;18.23;10.25;;;;;;;;;;5017594;28;20071;-71
2021/07/20 01:56:22;;;;;;;16.73;9.98;;;;;;;;;;5035251;28;20493;-71
2021/07/20 01:58:49;;;;;;;14.75;9.85;;;;;;;;;;5035303;28;20017;-71
2021/07/20 02:01:20;;;;;;;13.23;9.18;;;;;;;;;;5035267;28;20023;-71
2021/07/20 02:09:12;;;;;;;17.35;9.27;;;;;;;;;;5035055;28;20045;-71
2021/07/20 02:11:39;;;;;;;14.30;9.82;;;;;;;;;;5035159;28;20466;-71
2021/07/20 02:14:09;;;;;;;12.93;9.05;;;;;;;;;;5034953;28;20067;-71
2021/07/20 02:21:53;;;;;;;24.75;11.73;;;;;;;;;;6171082;22;20020;-70
2021/07/20 02:24:21;;;;;;;15.07;9.60;;;;;;;;;;5054070;28;20406;-71
2021/07/20 02:26:49;;;;;;;14.50;9.93;;;;;;;;;;5054673;28;20116;-71
2021/07/20 02:29:16;;;;;;;16.52;10.30;;;;;;;;;;5054960;28;20111;-71
2021/07/20 02:31:43;;;;;;;12.63;8.65;;;;;;;;;;5054839;28;20013;-71
2021/07/20 02:34:10;;;;;;;14.77;8.90;;;;;;;;;;5054654;28;20028;-71
2021/07/20 02:36:39;;;;;;;16.85;9.52;;;;;;;;;;5036961;28;20017;-71
2021/07/20 02:39:06;;;;;;;;;;;;;;;;;;5036359;28;20017;-71
2021/07/20 02:41:32;;;;;;;15.48;8.52;;;;;;;;;;5054770;28;19940;-71
2021/07/20 02:43:59;;;;;;;15.23;8.77;;;;;;;;;;5054627;28;20103;-71
2021/07/20 02:46:25;;;;;;;21.33;8.73;;;;;;;;;;5054657;28;20024;-71
2021/07/20 02:48:52;;;;;;;13.27;9.20;;;;;;;;;;5054161;28;20036;-71
2021/07/20 02:51:18;;;;;;;17.80;9.85;;;;;;;;;;5036595;28;20435;-70
2021/07/20 02:53:45;;;;;;;12.02;8.30;;;;;;;;;;5054692;28;20017;-71
2021/07/20 02:56:13;;;;;;;12.77;8.73;;;;;;;;;;5054394;28;20020;-71
2021/07/20 02:58:41;;;;;;;14.60;8.50;;;;;;;;;;5054248;28;20473;-71
2021/07/20 03:01:07;;;;;;;17.80;9.20;;;;;;;;;;5053885;28;20028;-71
2021/07/20 03:03:34;;;;;;;14.30;9.43;;;;;;;;;;5054269;28;20458;-71
2021/07/20 03:06:01;;;;;;;18.85;8.70;;;;;;;;;;5036565;28;20029;-71
2021/07/20 03:08:28;;;;;;;13.57;9.15;;;;;;;;;;5036463;28;20392;-71
2021/07/20 03:10:59;;;;;;;12.80;8.82;;;;;;;;;;5053947;28;20017;-71
2021/07/20 03:13:26;;;;;;;12.05;7.78;;;;;;;;;;5054054;28;20063;-71
2021/07/20 03:18:28;;;;;;;16.08;9.65;;;;;;;;;;5787314;22;21124;-71
2021/07/20 03:20:54;;;;;;;17.40;8.55;;;;;;;;;;5033697;28;20474;-71
2021/07/20 03:23:21;;;;;;;20.55;8.60;;;;;;;;;;5033649;28;20025;-71
2021/07/20 03:25:48;;;;;;;14.05;8.63;;;;;;;;;;5033728;28;20018;-71
2021/07/20 03:28:15;;;;;;;16.27;9.40;;;;;;;;;;5033337;28;20109;-71
2021/07/20 03:30:41;;;;;;;21.40;8.90;;;;;;;;;;5033674;28;20024;-71
2021/07/20 03:33:06;;;;;;;15.70;10.25;;;;;;;;;;5033319;28;20108;-71
2021/07/20 03:35:33;;;;;;;16.15;8.77;;;;;;;;;;5033638;28;20113;-71
2021/07/20 03:37:59;;;;;;;14.15;9.10;;;;;;;;;;5033455;28;20017;-71
2021/07/20 03:40:26;;;;;;;17.80;10.50;;;;;;;;;;5033552;28;20021;-71
2021/07/20 03:42:52;;;;;;;14.23;9.13;;;;;;;;;;5032999;28;20025;-70
2021/07/20 03:45:17;;;;;;;14.05;9.13;;;;;;;;;;5033509;28;20018;-71
2021/07/20 03:47:44;;;;;;;15.00;8.38;;;;;;;;;;5033269;28;20394;-71
2021/07/20 03:50:10;;;;;;;12.95;8.75;;;;;;;;;;5033111;28;20029;-71
2021/07/20 03:52:38;;;;;;;17.77;9.10;;;;;;;;;;5033319;28;20028;-70
2021/07/20 03:55:04;;;;;;;14.73;8.80;;;;;;;;;;5015149;28;20032;-71
2021/07/20 03:57:30;;;;;;;17.13;8.68;;;;;;;;;;5032998;28;20037;-71
2021/07/20 03:59:59;;;;;;;17.27;9.73;;;;;;;;;;5032929;28;20496;-71
2021/07/20 04:02:27;;;;;;;19.55;9.05;;;;;;;;;;5015610;28;20043;-71
2021/07/20 04:04:53;;;;;;;18.95;9.15;;;;;;;;;;5032836;28;20022;-71
2021/07/20 04:07:19;;;;;;;16.70;8.68;;;;;;;;;;5032867;28;20014;-71
2021/07/20 04:09:45;;;;;;;12.75;8.80;;;;;;;;;;5033025;28;20441;-71
2021/07/20 04:12:14;;;;;;;15.98;9.10;;;;;;;;;;5032505;28;20028;-71
2021/07/20 04:14:40;;;;;;;;;;;;;;;;;;5033487;28;20028;-71
2021/07/20 04:17:08;;;;;;;14.95;8.50;;;;;;;;;;5129759;22;19925;-71
2021/07/20 04:19:34;;;;;;;19.98;9.02;;;;;;;;;;5011983;28;20057;-71
2021/07/20 04:22:01;;;;;;;18.48;8.65;;;;;;;;;;5013167;28;20017;-71
2021/07/20 04:24:27;;;;;;;17.38;9.30;;;;;;;;;;5013033;28;20018;-71
2021/07/20 04:26:54;;;;;;;17.23;8.55;;;;;;;;;;5012756;28;20017;-70
2021/07/20 04:29:22;;;;;;;13.90;8.38;;;;;;;;;;5011854;28;20050;-71
2021/07/20 04:31:48;;;;;;;15.43;9.10;;;;;;;;;;5013043;28;20014;-71
2021/07/20 04:34:15;;;;;;;19.88;9.40;;;;;;;;;;5012939;28;20382;-71
2021/07/20 04:36:42;;;;;;;14.90;8.63;;;;;;;;;;5011717;28;20371;-71
2021/07/20 04:39:08;;;;;;;11.25;7.75;;;;;;;;;;5011271;28;20133;-71
2021/07/20 04:41:35;;;;;;;14.60;8.18;;;;;;;;;;5012689;28;20024;-71
2021/07/20 04:44:02;;;;;;;16.25;8.88;;;;;;;;;;5011580;28;20132;-71
2021/07/20 04:46:27;;;;;;;16.05;8.48;;;;;;;;;;5012779;28;20022;-71
2021/07/20 04:48:53;;;;;;;12.25;8.05;;;;;;;;;;5012509;28;20530;-72
2021/07/20 04:51:19;;;;;;;15.10;8.57;;;;;;;;;;5012641;28;20029;-71
2021/07/20 04:53:46;;;;;;;15.40;8.85;;;;;;;;;;5012784;28;20013;-71
2021/07/20 04:56:12;;;;;;;14.48;9.43;;;;;;;;;;5012540;28;20017;-71
2021/07/20 04:58:38;;;;;;;11.95;8.75;;;;;;;;;;5012907;28;20014;-71
2021/07/20 05:01:04;;;;;;;14.25;9.07;;;;;;;;;;5012569;28;20022;-71
2021/07/20 05:03:33;;;;;;;15.05;9.48;;;;;;;;;;5017080;28;20014;-71
2021/07/20 05:06:00;;;;;;;15.70;9.48;;;;;;;;;;5015355;28;20482;-71
2021/07/20 05:08:27;;;;;;;14.02;8.68;;;;;;;;;;5016509;28;20401;-71
2021/07/20 05:10:55;;;;;;;19.15;8.90;;;;;;;;;;5016278;28;20018;-71
2021/07/20 05:13:21;;;;;;;17.55;8.85;;;;;;;;;;5016476;28;20013;-71
2021/07/20 05:15:51;;;;;;;16.73;7.97;;;;;;;;;;5016460;28;20014;-71
2021/07/20 05:18:19;;;;;;;13.32;8.23;;;;;;;;;;5014820;28;20101;-71
2021/07/20 05:20:47;;;;;;;19.80;8.02;;;;;;;;;;5016214;28;20037;-71
2021/07/20 05:23:15;;;;;;;17.42;8.82;;;;;;;;;;5014832;28;20507;-71
2021/07/20 05:25:41;;;;;;;20.17;8.68;;;;;;;;;;5016260;28;20018;-71
2021/07/20 05:28:08;;;;;;;15.48;9.00;;;;;;;;;;5016119;28;20029;-72
2021/07/20 05:30:33;;;;;;;14.52;7.93;;;;;;;;;;5016304;28;20044;-71
2021/07/20 05:32:59;;;;;;;19.25;8.25;;;;;;;;;;5015110;28;20033;-72
2021/07/20 05:35:25;;;;;;;15.95;8.52;;;;;;;;;;5035673;28;20028;-72
2021/07/20 05:37:51;;;;;;;15.43;7.70;;;;;;;;;;5017517;28;20025;-72
2021/07/20 05:40:18;;;;;;;15.15;7.97;;;;;;;;;;5017415;28;20024;-76
2021/07/20 05:42:45;;;;;;;13.02;8.02;;;;;;;;;;5017738;28;20045;-68
2021/07/20 05:45:11;;;;;;;15.80;7.78;;;;;;;;;;5035252;28;20564;-73
2021/07/20 05:47:44;;;;;;;16.05;8.15;;;;;;;;;;5035482;28;20026;-72
2021/07/20 05:50:10;;;;;;;13.73;7.57;;;;;;;;;;5017527;28;20108;-72
2021/07/20 05:52:36;;;;;;;13.93;8.27;;;;;;;;;;5035505;28;20056;-68
2021/07/20 05:55:04;;;;;;;17.27;8.25;;;;;;;;;;5034960;28;20018;-71
2021/07/20 05:57:30;;;;;;;15.63;7.65;;;;;;;;;;5035284;28;20056;-68
2021/07/20 05:59:56;;;;;;;16.85;8.20;;;;;;;;;;5035148;28;20409;-74
2021/07/20 06:02:22;;;;;;;15.70;7.95;;;;;;;;;;5014380;28;20053;-77
2021/07/20 06:04:49;;;;;;;14.68;8.10;;;;;;;;;;4997768;28;20048;-77
2021/07/20 06:07:15;;;;;;;13.65;7.78;;;;;;;;;;5015151;28;20018;-78
2021/07/20 06:09:43;;;;;;;11.85;7.85;;;;;;;;;;4997933;28;20028;-76
2021/07/20 06:12:10;;;;;;;14.05;7.95;;;;;;;;;;5015324;28;20014;-67
2021/07/20 06:14:37;;;;;;;14.93;8.45;;;;;;;;;;5013894;28;20489;-66
2021/07/20 06:17:02;;;;;;;17.73;8.80;;;;;;;;;;5014232;28;20046;-66
2021/07/20 06:19:28;;;;;;;15.55;8.38;;;;;;;;;;5014857;28;20018;-64
2021/07/20 06:21:55;;;;;;;15.57;7.45;;;;;;;;;;5014796;28;20017;-68
2021/07/20 06:24:21;;;;;;;12.65;7.57;;;;;;;;;;4996986;28;20519;-69
2021/07/20 06:26:47;;;;;;;15.90;8.20;;;;;;;;;;5014578;28;20021;-78
2021/07/20 06:29:14;;;;;;;15.07;8.05;;;;;;;;;;5015223;28;20112;-78
2021/07/20 06:31:42;;;;;;;15.60;7.82;;;;;;;;;;4997703;28;20026;-79
2021/07/20 06:34:08;;;;;;;12.55;7.43;;;;;;;;;;5014665;28;20086;-77
2021/07/20 06:36:34;;;;;;;13.23;8.30;;;;;;;;;;4997289;28;20030;-78
2021/07/20 06:38:59;;;;;;;17.05;7.88;;;;;;;;;;4997139;28;20462;-67
2021/07/20 06:41:25;;;;;;;11.07;8.27;;;;;;;;;;5014246;28;20028;-67
2021/07/20 06:43:51;;;;;;;14.38;7.47;;;;;;;;;;5014234;28;20034;-67
2021/07/20 06:46:17;;;;;;;14.32;9.00;;;;;;;;;;4996956;28;20033;-67
2021/07/20 06:48:44;;;;;;;15.30;7.80;;;;;;;;;;5013845;28;20036;-67
2021/07/20 06:51:10;;;;;;;11.85;7.82;;;;;;;;;;4992917;28;20045;-66
2021/07/20 06:53:35;;;;;;;14.52;8.13;;;;;;;;;;5010488;28;20478;-68
2021/07/20 06:56:03;;;;;;;15.10;8.18;;;;;;;;;;5013991;28;20052;-68
2021/07/20 06:58:29;;;;;;;15.43;8.48;;;;;;;;;;5014336;28;20060;-67
2021/07/20 07:00:56;;;;;;;14.30;8.40;;;;;;;;;;5013656;28;20398;-68
2021/07/20 07:03:25;;;;;;;14.45;8.35;;;;;;;;;;5013365;28;20053;-68
2021/07/20 07:05:52;;;;;;;21.15;8.82;;;;;;;;;;5014133;28;20018;-68
2021/07/20 07:08:18;;;;;;;14.07;8.15;;;;;;;;;;5013793;28;20034;-69
2021/07/20 07:10:47;;;;;;;15.40;8.15;;;;;;;;;;5012705;28;20013;-70
2021/07/20 07:13:12;;;;;;;15.63;7.87;;;;;;;;;;5013494;28;20045;-70
2021/07/20 07:15:38;;;;;;;15.98;8.23;;;;;;;;;;5013113;28;20731;-70
2021/07/20 07:18:04;;;;;;;13.25;8.30;;;;;;;;;;5013348;28;20536;-69
2021/07/20 07:20:30;;;;;;;15.50;8.75;;;;;;;;;;5013998;28;20076;-71
2021/07/20 07:22:58;;;;;;;15.77;9.02;;;;;;;;;;5013518;28;20057;-70
2021/07/20 07:25:24;;;;;;;11.65;7.80;;;;;;;;;;5013130;28;20100;-69
2021/07/20 07:27:50;;;;;;;16.25;9.05;;;;;;;;;;5013776;28;20101;-69
2021/07/20 07:30:16;;;;;;;13.20;8.77;;;;;;;;;;5013530;28;20479;-70
2021/07/20 07:32:42;;;;;;;13.63;8.45;;;;;;;;;;5013436;28;20056;-70
2021/07/20 07:35:09;;;;;;;16.05;9.30;;;;;;;;;;5013512;28;20018;-70
2021/07/20 07:37:35;;;;;;;14.70;9.13;;;;;;;;;;5013954;28;20014;-71
2021/07/20 07:40:03;;;;;;;12.00;7.85;;;;;;;;;;4995889;28;20378;-71
2021/07/20 07:42:29;;;;;;;19.38;8.82;;;;;;;;;;4975553;28;20014;-72
2021/07/20 07:44:56;;;;;;;16.67;8.60;;;;;;;;;;5010405;28;20025;-72
2021/07/20 07:47:24;;;;;;;14.75;7.97;;;;;;;;;;5012898;28;20558;-70
2021/07/20 07:49:49;;;;;;;15.80;8.23;;;;;;;;;;5013522;28;20112;-72
2021/07/20 07:52:15;;;;;;;12.80;8.00;;;;;;;;;;5013336;28;20120;-68
2021/07/20 07:54:41;;;;;;;11.43;8.35;;;;;;;;;;5012891;28;20025;-67
2021/07/20 07:57:06;;;;;;;13.82;7.93;;;;;;;;;;5013359;28;20097;-66
2021/07/20 07:59:32;;;;;;;14.02;8.80;;;;;;;;;;5013344;28;20022;-67
2021/07/20 08:01:59;;;;;;;14.82;8.18;;;;;;;;;;5012986;28;20108;-67
2021/07/20 08:04:26;;;;;;;15.68;7.70;;;;;;;;;;5012738;28;20029;-69
2021/07/20 08:06:54;;;;;;;12.48;8.40;;;;;;;;;;5013056;28;20014;-69
2021/07/20 08:09:20;;;;;;;14.60;7.93;;;;;;;;;;4978936;28;20038;-69
2021/07/20 08:11:46;;;;;;;12.57;7.88;;;;;;;;;;5013462;28;20021;-69
2021/07/20 08:14:12;;;;;;;14.48;7.75;;;;;;;;;;4995674;28;20471;-73
2021/07/20 08:19:15;;;;;;;12.18;7.63;;;;;;;;;;5666795;23;19929;-73
2021/07/20 08:21:42;;;;;;;17.27;7.90;;;;;;;;;;5072845;28;20032;-72
2021/07/20 08:24:08;;;;;;;13.93;8.30;;;;;;;;;;5072732;28;20039;-72
2021/07/20 08:26:39;;;;;;;15.98;7.68;;;;;;;;;;5073138;28;20020;-75
2021/07/20 08:29:06;;;;;;;14.57;8.25;;;;;;;;;;5072412;28;20060;-77
2021/07/20 08:31:40;;;;;;;13.02;7.35;;;;;;;;;;5033857;28;20424;-75
2021/07/20 08:34:06;;;;;;;13.32;7.70;;;;;;;;;;5072662;28;20531;-77
2021/07/20 08:36:35;;;;;;;11.82;7.63;;;;;;;;;;5053949;28;20020;-74
2021/07/20 08:39:02;;;;;;;13.88;7.47;;;;;;;;;;5071958;28;20024;-74
2021/07/20 08:41:33;;;;;;;13.07;7.75;;;;;;;;;;5072512;28;20025;-70
2021/07/20 08:44:18;;;;;;;12.57;7.85;;;;;;;;;;5071900;28;20057;-68
2021/07/20 08:47:02;;;;;;;11.35;7.78;;;;;;;;;;5071737;28;20366;-69
2021/07/20 08:49:46;;;;;;;23.85;17.55;;;;;;;;;;5072208;28;20033;-68
2021/07/20 08:52:20;;;;;;;13.32;7.70;;;;;;;;;;5072315;28;20491;-69
2021/07/20 08:54:50;;;;;;;14.63;7.72;;;;;;;;;;5071516;28;20020;-67
2021/07/20 08:57:23;;;;;;;12.90;8.15;;;;;;;;;;5072254;28;20016;-68
2021/07/20 08:59:56;;;;;;;11.77;7.85;;;;;;;;;;5054147;28;20539;-69
2021/07/20 09:02:40;;;;;;;13.25;8.18;;;;;;;;;;5071810;28;20058;-69
2021/07/20 09:05:14;;;;;;;10.80;7.45;;;;;;;;;;5071806;28;20024;-69
2021/07/20 09:07:43;;;;;;;12.07;7.78;;;;;;;;;;5071765;28;20048;-70
2021/07/20 09:10:11;;;;;;;11.88;6.90;;;;;;;;;;5054509;28;20376;-70
2021/07/20 09:12:38;;;;;;;16.50;7.55;;;;;;;;;;5037412;28;20473;-69
2021/07/20 09:15:08;;;;;;;14.00;7.82;;;;;;;;;;5071416;28;20416;-69
2021/07/20 09:17:38;;;;;;;15.73;7.72;;;;;;;;;;5042172;23;20564;-69
2021/07/20 09:20:08;;;;;;;14.75;7.90;;;;;;;;;;5032035;28;20124;-68
2021/07/20 09:22:47;;;;;;;11.85;7.90;;;;;;;;;;5031346;28;20029;-68
2021/07/20 09:25:17;;;;;;;14.48;8.07;;;;;;;;;;5032072;28;20013;-68
2021/07/20 09:27:51;;;;;;;14.63;8.27;;;;;;;;;;5014597;28;20057;-68
2021/07/20 09:30:18;;;;;;;15.18;8.05;;;;;;;;;;5031238;28;20026;-68
2021/07/20 09:32:52;;;;;;;11.55;7.93;;;;;;;;;;5031594;28;20018;-67
2021/07/20 09:35:23;;;;;;;15.05;8.55;;;;;;;;;;5032360;28;20430;-68
2021/07/20 09:38:07;;;;;;;11.55;7.47;;;;;;;;;;5014194;28;20017;-67
2021/07/20 09:40:42;;;;;;;11.75;7.50;;;;;;;;;;5031766;28;20025;-68
2021/07/20 09:43:14;;;;;;;9.52;6.93;;;;;;;;;;5031541;28;20048;-67
2021/07/20 09:45:42;;;;;;;16.00;8.00;;;;;;;;;;5031656;28;20429;-68
2021/07/20 09:48:29;;;;;;;13.90;7.93;;;;;;;;;;5033468;28;20031;-67
2021/07/20 09:51:13;;;;;;;17.63;8.77;;;;;;;;;;5034992;28;20022;-67
2021/07/20 09:53:58;;;;;;;12.63;8.68;;;;;;;;;;5017264;28;20072;-68
2021/07/20 09:56:38;;;;;;;14.00;8.35;;;;;;;;;;5035301;28;20041;-68
2021/07/20 09:59:09;;;;;;;12.07;7.78;;;;;;;;;;5034757;28;20030;-67
2021/07/20 10:01:42;;;;;;;12.50;8.90;;;;;;;;;;5017573;28;20076;-68
2021/07/20 10:04:14;;;;;;;15.40;9.57;;;;;;;;;;5034813;28;20028;-67
2021/07/20 10:06:43;;;;;;;13.35;8.43;;;;;;;;;;5012995;28;20022;-67
2021/07/20 10:09:27;;;;;;;19.80;9.60;;;;;;;;;;5030411;28;20036;-67
2021/07/20 10:11:58;;;;;;;20.50;9.70;;;;;;;;;;5034614;28;20017;-66
2021/07/20 10:14:36;;;;;;;19.10;9.98;;;;;;;;;;5016695;28;20018;-66
2021/07/20 10:36:42;;;;;;;17.63;8.75;;;;;;;;;;5012826;28;20054;-68
2021/07/20 10:39:09;;;;;;;17.90;9.85;;;;;;;;;;5014372;28;20022;-68
2021/07/20 10:41:38;;;;;;;15.80;9.07;;;;;;;;;;5014770;28;20013;-68
2021/07/20 10:44:23;;;;;;;13.70;8.88;;;;;;;;;;5014433;28;20022;-67
2021/07/20 10:46:51;;;;;;;13.80;8.95;;;;;;;;;;5006934;28;20022;-67
2021/07/20 10:49:28;;;;;;;16.88;8.93;;;;;;;;;;5009110;28;20048;-67
2021/07/20 10:51:58;;;;;;;16.80;9.45;;;;;;;;;;4994904;28;20024;-67
2021/07/20 10:54:28;;;;;;;14.60;9.32;;;;;;;;;;4996674;28;20022;-67
2021/07/20 10:57:28;;;;;;;19.10;9.15;;;;;;;;;;5006256;28;20030;-69
2021/07/20 11:00:18;;;;;;;16.58;8.98;;;;;;;;;;4914710;29;20032;-68
2021/07/20 11:03:02;;;;;;;16.63;9.10;;;;;;;;;;4914693;29;20020;-68
2021/07/20 11:05:28;;;;;;;14.27;9.00;;;;;;;;;;4915696;29;20229;-68
2021/07/20 11:07:56;;;;;;;13.82;8.88;;;;;;;;;;4915486;29;20445;-69
2021/07/20 11:10:32;;;;;;;13.13;9.93;;;;;;;;;;4913559;29;20036;-68
2021/07/20 11:13:00;;;;;;;17.10;9.75;;;;;;;;;;4914586;29;20577;-68
2021/07/20 11:15:27;;;;;;;16.13;10.05;;;;;;;;;;4915183;29;20044;-69
2021/07/20 11:17:53;;;;;;;17.70;9.80;;;;;;;;;;4914796;29;20449;-68
2021/07/20 11:20:20;;;;;;;15.45;9.35;;;;;;;;;;4915451;29;20481;-68
2021/07/20 11:22:46;;;;;;;17.40;9.27;;;;;;;;;;4915074;29;20133;-68
2021/07/20 11:25:12;;;;;;;16.55;9.50;;;;;;;;;;4914840;29;20024;-67
2021/07/20 11:27:42;;;;;;;16.92;10.25;;;;;;;;;;4915281;29;20029;-68
2021/07/20 11:30:10;;;;;;;15.02;10.57;;;;;;;;;;4915276;29;20029;-68
2021/07/20 11:32:36;;;;;;;16.88;9.73;;;;;;;;;;4914703;29;20470;-67
2021/07/20 11:35:03;;;;;;;18.30;8.88;;;;;;;;;;4914503;29;20050;-67
2021/07/20 11:37:31;;;;;;;21.80;9.95;;;;;;;;;;4979774;28;20089;-67
2021/07/20 11:40:03;;;;;;;16.10;9.43;;;;;;;;;;4993935;28;20365;-66
2021/07/20 11:42:35;;;;;;;20.48;10.45;;;;;;;;;;4972631;28;20058;-66
2021/07/20 11:45:01;;;;;;;13.80;9.98;;;;;;;;;;4991763;28;20014;-66
2021/07/20 11:47:32;;;;;;;13.93;8.95;;;;;;;;;;4993104;28;20015;-67
2021/07/20 11:50:16;;;;;;;17.92;9.35;;;;;;;;;;4993773;28;20018;-67
2021/07/20 11:52:53;;;;;;;14.68;9.32;;;;;;;;;;4993828;28;20022;-67
2021/07/20 11:55:35;;;;;;;12.35;9.63;;;;;;;;;;4993245;28;20018;-67
2021/07/20 11:58:19;;;;;;;13.90;8.80;;;;;;;;;;4993793;28;20045;-66
2021/07/20 12:01:02;;;;;;;17.33;9.10;;;;;;;;;;4993207;28;20037;-67
2021/07/20 12:03:40;;;;;;;15.38;8.82;;;;;;;;;;4992944;28;20479;-69
2021/07/20 12:06:24;;;;;;;12.25;9.30;;;;;;;;;;4993494;28;20026;-67
2021/07/20 12:09:01;;;;;;;11.57;9.52;;;;;;;;;;4975202;28;20034;-68
2021/07/20 12:11:29;;;;;;;11.73;8.90;;;;;;;;;;4974946;28;20019;-67
2021/07/20 12:13:59;;;;;;;12.45;9.52;;;;;;;;;;4975676;28;20026;-66
2021/07/20 12:16:25;;;;;;;15.27;9.25;;;;;;;;;;4992956;28;20037;-67
2021/07/20 12:18:54;;;;;;;15.73;9.38;;;;;;;;;;4993211;28;20023;-68
2021/07/20 12:21:21;;;;;;;18.80;10.13;;;;;;;;;;4993243;28;20100;-67
2021/07/20 12:23:50;;;;;;;16.30;9.70;;;;;;;;;;4975744;28;20104;-67
2021/07/20 12:26:18;;;;;;;15.02;8.68;;;;;;;;;;4993613;28;20169;-67
2021/07/20 12:28:44;;;;;;;12.35;9.57;;;;;;;;;;4993033;28;20120;-67
2021/07/20 12:31:12;;;;;;;11.48;8.77;;;;;;;;;;4993524;28;20048;-67
2021/07/20 12:33:40;;;;;;;18.63;9.48;;;;;;;;;;4993305;28;20018;-67
2021/07/20 12:36:05;;;;;;;14.55;9.52;;;;;;;;;;4993063;28;20046;-67
2021/07/20 12:38:33;;;;;;;13.25;8.63;;;;;;;;;;4975786;28;20110;-67
2021/07/20 12:41:06;;;;;;;13.48;9.30;;;;;;;;;;4993080;28;20085;-67
2021/07/20 12:43:32;;;;;;;39.65;10.35;;;;;;;;;;4975943;28;20018;-67
2021/07/20 12:46:08;;;;;;;13.75;8.70;;;;;;;;;;4993139;28;20109;-67
2021/07/20 12:48:34;;;;;;;14.63;8.57;;;;;;;;;;4993060;28;20022;-67
2021/07/20 12:51:09;;;;;;;15.80;9.18;;;;;;;;;;4975749;28;20498;-67
2021/07/20 12:53:39;;;;;;;12.40;8.10;;;;;;;;;;4993278;28;20023;-67
2021/07/20 12:56:06;;;;;;;14.75;8.57;;;;;;;;;;4993054;28;20422;-66
2021/07/20 12:58:32;;;;;;;13.20;9.05;;;;;;;;;;4993077;28;20029;-67
2021/07/20 13:00:58;;;;;;;14.05;8.90;;;;;;;;;;4992735;28;20029;-68
2021/07/20 13:03:24;;;;;;;15.43;8.90;;;;;;;;;;4992950;28;20113;-67
2021/07/20 13:05:51;;;;;;;13.60;8.75;;;;;;;;;;4992763;28;20510;-68
2021/07/20 13:08:19;;;;;;;11.82;9.20;;;;;;;;;;4992878;28;20157;-68
2021/07/20 13:10:45;;;;;;;;;;;;;;;;;;4975803;28;20077;-68
2021/07/20 13:13:11;;;;;;;11.98;8.60;;;;;;;;;;4993124;28;19906;-68
2021/07/20 13:15:36;;;;;;;13.38;9.68;;;;;;;;;;4992143;28;20029;-68
2021/07/20 13:18:02;;;;;;;13.57;9.93;;;;;;;;;;4992558;28;20011;-67
2021/07/20 13:20:29;;;;;;;11.52;8.27;;;;;;;;;;4992652;28;20041;-67
2021/07/20 13:22:55;;;;;;;11.07;8.60;;;;;;;;;;4994099;28;20440;-67
2021/07/20 13:25:21;;;;;;;16.63;9.57;;;;;;;;;;4996433;28;20093;-67
2021/07/20 13:27:51;;;;;;;13.50;8.20;;;;;;;;;;4996529;28;20361;-67
2021/07/20 13:30:22;;;;;;;12.32;8.07;;;;;;;;;;4996205;28;20030;-67
2021/07/20 13:32:48;;;;;;;11.55;8.30;;;;;;;;;;4979023;28;20431;-67
2021/07/20 13:35:14;;;;;;;12.82;8.50;;;;;;;;;;4996061;28;20054;-67
2021/07/20 13:37:40;;;;;;;27.67;8.65;;;;;;;;;;4978968;28;20030;-67
2021/07/20 13:40:07;;;;;;;14.05;8.75;;;;;;;;;;4993599;28;20011;-67
2021/07/20 13:42:33;;;;;;;12.75;8.38;;;;;;;;;;4996167;28;20057;-68
2021/07/20 13:45:00;;;;;;;14.32;8.68;;;;;;;;;;4978452;28;20011;-66
2021/07/20 13:47:27;;;;;;;16.13;8.40;;;;;;;;;;4995730;28;20391;-66
2021/07/20 13:49:54;;;;;;;14.75;9.15;;;;;;;;;;4996230;28;20068;-66
2021/07/20 13:52:21;;;;;;;14.90;8.98;;;;;;;;;;4995963;28;20018;-67
2021/07/20 13:54:48;;;;;;;14.52;9.60;;;;;;;;;;4995330;28;20023;-66
2021/07/20 13:57:13;;;;;;;13.65;8.75;;;;;;;;;;4996034;28;20019;-67
2021/07/20 13:59:40;;;;;;;14.32;8.63;;;;;;;;;;4995661;28;20030;-68
2021/07/20 14:02:06;;;;;;;11.55;8.35;;;;;;;;;;4995357;28;20018;-67
2021/07/20 14:04:31;;;;;;;15.75;8.32;;;;;;;;;;4996017;28;20034;-68
2021/07/20 14:06:57;;;;;;;14.40;8.45;;;;;;;;;;4995652;28;20510;-67
2021/07/20 14:09:23;;;;;;;12.68;8.20;;;;;;;;;;4995120;28;20476;-70
2021/07/20 14:11:49;;;;;;;13.50;8.82;;;;;;;;;;4995862;28;20423;-68
2021/07/20 14:14:15;;;;;;;15.98;8.68;;;;;;;;;;4995571;28;20026;-69
2021/07/20 14:16:42;;;;;;;12.80;9.20;;;;;;;;;;4977711;28;20027;-68
2021/07/20 14:19:11;;;;;;;12.10;8.18;;;;;;;;;;4995494;28;20011;-68
2021/07/20 14:21:38;;;;;;;12.75;8.43;;;;;;;;;;4978020;28;20436;-66
2021/07/20 14:24:06;;;;;;;15.68;8.40;;;;;;;;;;4995731;28;20026;-66
2021/07/20 14:26:36;;;;;;;17.77;9.45;;;;;;;;;;4995446;28;20022;-66
2021/07/20 14:29:01;;;;;;;15.52;8.85;;;;;;;;;;4994958;28;20114;-66
2021/07/20 14:31:28;;;;;;;12.25;9.40;;;;;;;;;;4995286;28;20114;-66
2021/07/20 14:33:58;;;;;;;12.73;9.75;;;;;;;;;;4994394;28;20018;-66
2021/07/20 14:36:34;;;;;;;16.45;9.25;;;;;;;;;;4995031;28;20566;-66
2021/07/20 14:39:00;;;;;;;14.23;9.00;;;;;;;;;;4995064;28;20027;-66
2021/07/20 14:41:26;;;;;;;17.55;9.15;;;;;;;;;;4994999;28;20030;-66
2021/07/20 14:43:57;;;;;;;14.27;9.02;;;;;;;;;;4995178;28;20041;-66
2021/07/20 14:46:39;;;;;;;11.75;8.20;;;;;;;;;;4977912;28;20029;-67
2021/07/20 14:49:05;;;;;;;14.27;9.10;;;;;;;;;;4994855;28;20038;-66
2021/07/20 14:51:34;;;;;;;16.67;8.63;;;;;;;;;;4995107;28;20022;-66
2021/07/20 14:54:00;;;;;;;13.10;8.32;;;;;;;;;;4994878;28;20487;-66
2021/07/20 14:56:26;;;;;;;17.85;8.50;;;;;;;;;;4994960;28;20041;-66
2021/07/20 14:58:55;;;;;;;11.55;7.75;;;;;;;;;;4994770;28;20032;-66
2021/07/20 15:01:23;;;;;;;11.43;8.23;;;;;;;;;;4977503;28;20026;-67
2021/07/20 15:03:53;;;;;;;12.60;8.02;;;;;;;;;;4994848;28;20019;-66
2021/07/20 15:06:21;;;;;;;12.52;8.57;;;;;;;;;;4977307;28;20033;-66
2021/07/20 15:08:51;;;;;;;11.02;7.70;;;;;;;;;;4994484;28;20390;-66
2021/07/20 15:11:31;;;;;;;8.82;7.60;;;;;;;;;;4994858;28;20407;-66
2021/07/20 15:14:06;;;;;;;11.20;8.07;;;;;;;;;;4994732;28;20022;-66
2021/07/20 15:16:39;;;;;;;11.35;8.50;;;;;;;;;;4994388;28;20011;-67
2021/07/20 15:19:08;;;;;;;14.70;7.65;;;;;;;;;;4993909;28;20057;-67
2021/07/20 15:21:34;;;;;;;;;;;;;;;;;;4994688;28;20020;-66
2021/07/20 15:24:01;;;;;;;11.30;8.55;;;;;;;;;;4994229;28;19913;-66
2021/07/20 15:26:27;;;;;;;12.77;7.80;;;;;;;;;;4976640;28;20021;-67
2021/07/20 15:28:54;;;;;;;13.60;7.97;;;;;;;;;;4993924;28;20030;-66
2021/07/20 15:31:20;;;;;;;11.60;7.75;;;;;;;;;;4976778;28;20019;-66
2021/07/20 15:33:48;;;;;;;10.82;7.95;;;;;;;;;;4993911;28;20385;-66
2021/07/20 15:36:13;;;;;;;10.63;7.75;;;;;;;;;;4976496;28;20054;-66